sensor_id;sensor_type;location;lat;lon;timestamp;temperature;humidity
58809;DHT22;44579;51.672;7.834;2024-03-08T00:02:15;3.60;80.10
58809;DHT22;44579;51.672;7.834;2024-03-08T00:04:42;3.60;80.10
58809;DHT22;44579;51.672;7.834;2024-03-08T00:07:09;3.60;80.20
58809;DHT22;44579;51.672;7.834;2024-03-08T00:09:35;3.60;80.10
58809;DHT22;44579;51.672;7.834;2024-03-08T00:12:03;3.50;80.10
58809;DHT22;44579;51.672;7.834;2024-03-08T00:14:29;3.60;80.10
58809;DHT22;44579;51.672;7.834;2024-03-08T00:16:56;3.50;80.10
58809;DHT22;44579;51.672;7.834;2024-03-08T00:19:23;3.50;80.10
58809;DHT22;44579;51.672;7.834;2024-03-08T00:21:50;3.50;80.10
58809;DHT22;44579;51.672;7.834;2024-03-08T00:24:17;3.50;80.20
58809;DHT22;44579;51.672;7.834;2024-03-08T00:26:44;3.40;80.20
58809;DHT22;44579;51.672;7.834;2024-03-08T00:29:11;3.40;80.20
58809;DHT22;44579;51.672;7.834;2024-03-08T00:31:39;3.30;80.30
58809;DHT22;44579;51.672;7.834;2024-03-08T00:34:06;3.30;80.40
58809;DHT22;44579;51.672;7.834;2024-03-08T00:36:33;3.30;80.30
58809;DHT22;44579;51.672;7.834;2024-03-08T00:39:00;3.30;80.40
58809;DHT22;44579;51.672;7.834;2024-03-08T00:41:28;3.30;80.40
58809;DHT22;44579;51.672;7.834;2024-03-08T00:43:55;3.30;80.40
58809;DHT22;44579;51.672;7.834;2024-03-08T00:46:21;3.30;80.30
58809;DHT22;44579;51.672;7.834;2024-03-08T00:48:48;3.20;80.30
58809;DHT22;44579;51.672;7.834;2024-03-08T00:51:15;3.20;80.40
58809;DHT22;44579;51.672;7.834;2024-03-08T00:53:42;3.20;80.40
58809;DHT22;44579;51.672;7.834;2024-03-08T00:56:09;3.20;80.40
58809;DHT22;44579;51.672;7.834;2024-03-08T00:58:39;3.20;80.40
58809;DHT22;44579;51.672;7.834;2024-03-08T01:01:06;3.10;80.40
58809;DHT22;44579;51.672;7.834;2024-03-08T01:03:33;3.10;80.40
58809;DHT22;44579;51.672;7.834;2024-03-08T01:06:01;3.10;80.40
58809;DHT22;44579;51.672;7.834;2024-03-08T01:08:28;3.10;80.40
58809;DHT22;44579;51.672;7.834;2024-03-08T01:10:55;3.10;80.50
58809;DHT22;44579;51.672;7.834;2024-03-08T01:13:21;3.10;80.60
58809;DHT22;44579;51.672;7.834;2024-03-08T01:15:48;3.10;80.70
58809;DHT22;44579;51.672;7.834;2024-03-08T01:18:15;3.10;80.60
58809;DHT22;44579;51.672;7.834;2024-03-08T01:20:42;3.00;80.60
58809;DHT22;44579;51.672;7.834;2024-03-08T01:23:09;3.00;80.60
58809;DHT22;44579;51.672;7.834;2024-03-08T01:25:36;3.00;80.50
58809;DHT22;44579;51.672;7.834;2024-03-08T01:28:03;3.00;80.50
58809;DHT22;44579;51.672;7.834;2024-03-08T01:30:29;3.00;80.50
58809;DHT22;44579;51.672;7.834;2024-03-08T01:32:59;3.00;80.50
58809;DHT22;44579;51.672;7.834;2024-03-08T01:35:26;3.00;80.50
58809;DHT22;44579;51.672;7.834;2024-03-08T01:37:54;3.00;80.70
58809;DHT22;44579;51.672;7.834;2024-03-08T01:40:20;3.00;80.60
58809;DHT22;44579;51.672;7.834;2024-03-08T01:42:47;3.00;80.70
58809;DHT22;44579;51.672;7.834;2024-03-08T01:45:14;3.00;80.70
58809;DHT22;44579;51.672;7.834;2024-03-08T01:47:41;3.00;80.70
58809;DHT22;44579;51.672;7.834;2024-03-08T01:50:08;3.00;80.80
58809;DHT22;44579;51.672;7.834;2024-03-08T01:52:35;3.00;80.80
58809;DHT22;44579;51.672;7.834;2024-03-08T01:55:03;3.00;80.80
58809;DHT22;44579;51.672;7.834;2024-03-08T01:57:33;2.90;80.80
58809;DHT22;44579;51.672;7.834;2024-03-08T02:00:03;3.00;80.90
58809;DHT22;44579;51.672;7.834;2024-03-08T02:02:33;3.00;81.00
58809;DHT22;44579;51.672;7.834;2024-03-08T02:05:02;2.90;80.90
58809;DHT22;44579;51.672;7.834;2024-03-08T02:07:29;2.90;81.00
58809;DHT22;44579;51.672;7.834;2024-03-08T02:09:56;2.90;81.00
58809;DHT22;44579;51.672;7.834;2024-03-08T02:12:23;2.90;80.90
58809;DHT22;44579;51.672;7.834;2024-03-08T02:14:49;2.90;81.00
58809;DHT22;44579;51.672;7.834;2024-03-08T02:17:16;2.80;81.10
58809;DHT22;44579;51.672;7.834;2024-03-08T02:19:43;2.80;81.10
58809;DHT22;44579;51.672;7.834;2024-03-08T02:22:10;2.80;81.10
58809;DHT22;44579;51.672;7.834;2024-03-08T02:24:36;2.80;81.10
58809;DHT22;44579;51.672;7.834;2024-03-08T02:27:04;2.80;81.20
58809;DHT22;44579;51.672;7.834;2024-03-08T02:29:30;2.80;81.30
58809;DHT22;44579;51.672;7.834;2024-03-08T02:31:57;2.80;81.30
58809;DHT22;44579;51.672;7.834;2024-03-08T02:34:24;2.80;81.40
58809;DHT22;44579;51.672;7.834;2024-03-08T02:36:52;2.70;81.30
58809;DHT22;44579;51.672;7.834;2024-03-08T02:39:18;2.70;81.30
58809;DHT22;44579;51.672;7.834;2024-03-08T02:41:46;2.70;81.40
58809;DHT22;44579;51.672;7.834;2024-03-08T02:44:13;2.70;81.40
58809;DHT22;44579;51.672;7.834;2024-03-08T02:46:41;2.70;81.40
58809;DHT22;44579;51.672;7.834;2024-03-08T02:49:08;2.70;81.30
58809;DHT22;44579;51.672;7.834;2024-03-08T02:51:34;2.70;81.30
58809;DHT22;44579;51.672;7.834;2024-03-08T02:54:02;2.70;81.30
58809;DHT22;44579;51.672;7.834;2024-03-08T02:56:30;2.70;81.30
58809;DHT22;44579;51.672;7.834;2024-03-08T02:59:02;2.70;81.20
58809;DHT22;44579;51.672;7.834;2024-03-08T03:01:33;2.70;81.30
58809;DHT22;44579;51.672;7.834;2024-03-08T03:04:00;2.60;81.30
58809;DHT22;44579;51.672;7.834;2024-03-08T03:06:27;2.60;81.30
58809;DHT22;44579;51.672;7.834;2024-03-08T03:08:54;2.60;81.40
58809;DHT22;44579;51.672;7.834;2024-03-08T03:11:21;2.60;81.50
58809;DHT22;44579;51.672;7.834;2024-03-08T03:13:49;2.60;81.40
58809;DHT22;44579;51.672;7.834;2024-03-08T03:16:19;2.50;81.40
58809;DHT22;44579;51.672;7.834;2024-03-08T03:18:46;2.50;81.40
58809;DHT22;44579;51.672;7.834;2024-03-08T03:21:13;2.50;81.40
58809;DHT22;44579;51.672;7.834;2024-03-08T03:23:41;2.50;81.50
58809;DHT22;44579;51.672;7.834;2024-03-08T03:26:09;2.50;81.50
58809;DHT22;44579;51.672;7.834;2024-03-08T03:28:40;2.50;81.40
58809;DHT22;44579;51.672;7.834;2024-03-08T03:31:07;2.50;81.30
58809;DHT22;44579;51.672;7.834;2024-03-08T03:33:36;2.50;81.40
58809;DHT22;44579;51.672;7.834;2024-03-08T03:36:04;2.50;81.50
58809;DHT22;44579;51.672;7.834;2024-03-08T03:38:32;2.50;81.50
58809;DHT22;44579;51.672;7.834;2024-03-08T03:41:01;2.40;81.60
58809;DHT22;44579;51.672;7.834;2024-03-08T03:43:37;2.40;81.60
58809;DHT22;44579;51.672;7.834;2024-03-08T03:46:07;2.40;81.60
58809;DHT22;44579;51.672;7.834;2024-03-08T03:48:33;2.40;81.60
58809;DHT22;44579;51.672;7.834;2024-03-08T03:51:00;2.40;81.60
58809;DHT22;44579;51.672;7.834;2024-03-08T03:53:27;2.40;81.70
58809;DHT22;44579;51.672;7.834;2024-03-08T03:55:54;2.40;81.70
58809;DHT22;44579;51.672;7.834;2024-03-08T03:58:21;2.30;81.60
58809;DHT22;44579;51.672;7.834;2024-03-08T04:00:49;2.40;81.70
58809;DHT22;44579;51.672;7.834;2024-03-08T04:03:16;2.30;81.60
58809;DHT22;44579;51.672;7.834;2024-03-08T04:05:43;2.40;81.70
58809;DHT22;44579;51.672;7.834;2024-03-08T04:08:10;2.30;81.70
58809;DHT22;44579;51.672;7.834;2024-03-08T04:10:37;2.30;81.60
58809;DHT22;44579;51.672;7.834;2024-03-08T04:13:03;2.30;81.60
58809;DHT22;44579;51.672;7.834;2024-03-08T04:15:30;2.30;81.70
58809;DHT22;44579;51.672;7.834;2024-03-08T04:17:57;2.30;81.60
58809;DHT22;44579;51.672;7.834;2024-03-08T04:20:24;2.30;81.60
58809;DHT22;44579;51.672;7.834;2024-03-08T04:22:51;2.20;81.60
58809;DHT22;44579;51.672;7.834;2024-03-08T04:25:18;2.20;81.70
58809;DHT22;44579;51.672;7.834;2024-03-08T04:27:45;2.20;81.70
58809;DHT22;44579;51.672;7.834;2024-03-08T04:30:13;2.20;81.80
58809;DHT22;44579;51.672;7.834;2024-03-08T04:32:40;2.20;81.70
58809;DHT22;44579;51.672;7.834;2024-03-08T04:35:08;2.20;81.80
58809;DHT22;44579;51.672;7.834;2024-03-08T04:37:35;2.10;81.70
58809;DHT22;44579;51.672;7.834;2024-03-08T04:40:02;2.10;81.80
58809;DHT22;44579;51.672;7.834;2024-03-08T04:42:29;2.10;81.80
58809;DHT22;44579;51.672;7.834;2024-03-08T04:44:56;2.10;81.80
58809;DHT22;44579;51.672;7.834;2024-03-08T04:47:24;2.10;81.80
58809;DHT22;44579;51.672;7.834;2024-03-08T04:49:51;2.10;81.90
58809;DHT22;44579;51.672;7.834;2024-03-08T04:52:18;2.10;81.90
58809;DHT22;44579;51.672;7.834;2024-03-08T04:54:45;2.10;82.00
58809;DHT22;44579;51.672;7.834;2024-03-08T04:57:12;2.00;81.90
58809;DHT22;44579;51.672;7.834;2024-03-08T04:59:39;2.00;81.80
58809;DHT22;44579;51.672;7.834;2024-03-08T05:02:06;2.00;81.90
58809;DHT22;44579;51.672;7.834;2024-03-08T05:04:34;2.00;82.00
58809;DHT22;44579;51.672;7.834;2024-03-08T05:07:01;2.00;82.10
58809;DHT22;44579;51.672;7.834;2024-03-08T05:09:28;2.00;82.10
58809;DHT22;44579;51.672;7.834;2024-03-08T05:11:55;2.00;82.10
58809;DHT22;44579;51.672;7.834;2024-03-08T05:14:25;2.00;82.10
58809;DHT22;44579;51.672;7.834;2024-03-08T05:16:51;2.00;82.20
58809;DHT22;44579;51.672;7.834;2024-03-08T05:19:19;1.90;82.10
58809;DHT22;44579;51.672;7.834;2024-03-08T05:21:46;1.90;82.00
58809;DHT22;44579;51.672;7.834;2024-03-08T05:24:13;1.90;82.00
58809;DHT22;44579;51.672;7.834;2024-03-08T05:26:41;1.90;82.00
58809;DHT22;44579;51.672;7.834;2024-03-08T05:29:08;1.90;82.00
58809;DHT22;44579;51.672;7.834;2024-03-08T05:31:48;1.80;82.00
58809;DHT22;44579;51.672;7.834;2024-03-08T05:34:16;1.80;82.10
58809;DHT22;44579;51.672;7.834;2024-03-08T05:36:43;1.80;82.10
58809;DHT22;44579;51.672;7.834;2024-03-08T05:39:11;1.80;82.20
58809;DHT22;44579;51.672;7.834;2024-03-08T05:41:38;1.80;82.20
58809;DHT22;44579;51.672;7.834;2024-03-08T05:44:08;1.80;82.20
58809;DHT22;44579;51.672;7.834;2024-03-08T05:46:35;1.80;82.10
58809;DHT22;44579;51.672;7.834;2024-03-08T05:49:03;1.80;82.20
58809;DHT22;44579;51.672;7.834;2024-03-08T05:51:36;1.80;82.30
58809;DHT22;44579;51.672;7.834;2024-03-08T05:54:03;1.70;82.20
58809;DHT22;44579;51.672;7.834;2024-03-08T05:56:32;1.70;82.30
58809;DHT22;44579;51.672;7.834;2024-03-08T05:58:59;1.70;82.40
58809;DHT22;44579;51.672;7.834;2024-03-08T06:01:27;1.70;82.50
58809;DHT22;44579;51.672;7.834;2024-03-08T06:03:54;1.70;82.50
58809;DHT22;44579;51.672;7.834;2024-03-08T06:06:24;1.70;82.50
58809;DHT22;44579;51.672;7.834;2024-03-08T06:08:51;1.70;82.60
58809;DHT22;44579;51.672;7.834;2024-03-08T06:11:19;1.60;82.50
58809;DHT22;44579;51.672;7.834;2024-03-08T06:13:48;1.70;82.60
58809;DHT22;44579;51.672;7.834;2024-03-08T06:16:16;1.70;82.60
58809;DHT22;44579;51.672;7.834;2024-03-08T06:18:43;1.60;82.50
58809;DHT22;44579;51.672;7.834;2024-03-08T06:21:10;1.70;82.60
58809;DHT22;44579;51.672;7.834;2024-03-08T06:23:39;1.70;82.70
58809;DHT22;44579;51.672;7.834;2024-03-08T06:26:06;1.70;82.60
58809;DHT22;44579;51.672;7.834;2024-03-08T06:28:33;1.70;82.70
58809;DHT22;44579;51.672;7.834;2024-03-08T06:31:01;1.80;82.70
58809;DHT22;44579;51.672;7.834;2024-03-08T06:33:29;1.80;82.50
58809;DHT22;44579;51.672;7.834;2024-03-08T06:35:56;1.80;82.50
58809;DHT22;44579;51.672;7.834;2024-03-08T06:38:24;1.80;82.50
58809;DHT22;44579;51.672;7.834;2024-03-08T06:40:51;1.90;82.60
58809;DHT22;44579;51.672;7.834;2024-03-08T06:43:18;1.90;82.60
58809;DHT22;44579;51.672;7.834;2024-03-08T06:45:46;1.90;82.60
58809;DHT22;44579;51.672;7.834;2024-03-08T06:48:16;2.00;82.70
58809;DHT22;44579;51.672;7.834;2024-03-08T06:50:44;2.00;82.80
58809;DHT22;44579;51.672;7.834;2024-03-08T06:53:12;2.00;82.90
58809;DHT22;44579;51.672;7.834;2024-03-08T06:55:42;2.10;83.00
58809;DHT22;44579;51.672;7.834;2024-03-08T06:58:09;2.10;83.10
58809;DHT22;44579;51.672;7.834;2024-03-08T07:00:37;2.20;83.30
58809;DHT22;44579;51.672;7.834;2024-03-08T07:03:07;2.20;83.60
58809;DHT22;44579;51.672;7.834;2024-03-08T07:05:34;2.20;83.60
58809;DHT22;44579;51.672;7.834;2024-03-08T07:08:01;2.30;83.90
58809;DHT22;44579;51.672;7.834;2024-03-08T07:10:28;2.30;84.10
58809;DHT22;44579;51.672;7.834;2024-03-08T07:12:56;2.40;84.60
58809;DHT22;44579;51.672;7.834;2024-03-08T07:15:23;2.40;84.70
58809;DHT22;44579;51.672;7.834;2024-03-08T07:17:50;2.50;84.70
58809;DHT22;44579;51.672;7.834;2024-03-08T07:20:19;2.50;85.00
58809;DHT22;44579;51.672;7.834;2024-03-08T07:22:46;2.60;85.20
58809;DHT22;44579;51.672;7.834;2024-03-08T07:25:19;2.60;85.30
58809;DHT22;44579;51.672;7.834;2024-03-08T07:27:48;2.70;85.70
58809;DHT22;44579;51.672;7.834;2024-03-08T07:30:15;2.70;86.30
58809;DHT22;44579;51.672;7.834;2024-03-08T07:33:01;2.80;86.50
58809;DHT22;44579;51.672;7.834;2024-03-08T07:35:29;2.80;86.90
58809;DHT22;44579;51.672;7.834;2024-03-08T07:37:56;2.80;87.70
58809;DHT22;44579;51.672;7.834;2024-03-08T07:40:23;2.90;88.10
58809;DHT22;44579;51.672;7.834;2024-03-08T07:42:50;3.00;88.30
58809;DHT22;44579;51.672;7.834;2024-03-08T07:45:19;3.00;88.40
58809;DHT22;44579;51.672;7.834;2024-03-08T07:47:46;3.10;88.70
58809;DHT22;44579;51.672;7.834;2024-03-08T07:50:13;3.10;88.80
58809;DHT22;44579;51.672;7.834;2024-03-08T07:52:43;3.20;89.00
58809;DHT22;44579;51.672;7.834;2024-03-08T07:55:11;3.30;89.30
58809;DHT22;44579;51.672;7.834;2024-03-08T07:57:39;3.30;89.50
58809;DHT22;44579;51.672;7.834;2024-03-08T08:00:06;3.30;89.70
58809;DHT22;44579;51.672;7.834;2024-03-08T08:02:35;3.40;89.90
58809;DHT22;44579;51.672;7.834;2024-03-08T08:05:06;3.50;90.00
58809;DHT22;44579;51.672;7.834;2024-03-08T08:07:33;3.50;90.00
58809;DHT22;44579;51.672;7.834;2024-03-08T08:10:00;3.60;90.00
58809;DHT22;44579;51.672;7.834;2024-03-08T08:12:27;3.60;90.00
58809;DHT22;44579;51.672;7.834;2024-03-08T08:14:55;3.60;90.10
58809;DHT22;44579;51.672;7.834;2024-03-08T08:17:23;3.70;90.00
58809;DHT22;44579;51.672;7.834;2024-03-08T08:19:51;3.80;90.00
58809;DHT22;44579;51.672;7.834;2024-03-08T08:22:18;3.80;89.80
58809;DHT22;44579;51.672;7.834;2024-03-08T08:24:45;3.90;89.90
58809;DHT22;44579;51.672;7.834;2024-03-08T08:27:12;3.90;89.90
58809;DHT22;44579;51.672;7.834;2024-03-08T08:29:41;3.90;89.80
58809;DHT22;44579;51.672;7.834;2024-03-08T08:32:08;4.00;89.90
58809;DHT22;44579;51.672;7.834;2024-03-08T08:34:34;4.10;89.80
58809;DHT22;44579;51.672;7.834;2024-03-08T08:37:01;4.10;89.80
58809;DHT22;44579;51.672;7.834;2024-03-08T08:39:28;4.20;89.80
58809;DHT22;44579;51.672;7.834;2024-03-08T08:41:55;4.20;89.80
58809;DHT22;44579;51.672;7.834;2024-03-08T08:44:23;4.20;89.50
58809;DHT22;44579;51.672;7.834;2024-03-08T08:46:49;4.20;89.30
58809;DHT22;44579;51.672;7.834;2024-03-08T08:49:21;4.30;89.40
58809;DHT22;44579;51.672;7.834;2024-03-08T08:51:48;4.30;89.30
58809;DHT22;44579;51.672;7.834;2024-03-08T08:54:15;4.40;89.20
58809;DHT22;44579;51.672;7.834;2024-03-08T08:56:43;4.40;89.00
58809;DHT22;44579;51.672;7.834;2024-03-08T08:59:16;4.50;88.90
58809;DHT22;44579;51.672;7.834;2024-03-08T09:01:49;4.50;88.40
58809;DHT22;44579;51.672;7.834;2024-03-08T09:04:17;4.50;88.30
58809;DHT22;44579;51.672;7.834;2024-03-08T09:06:44;4.50;88.20
58809;DHT22;44579;51.672;7.834;2024-03-08T09:09:11;4.60;88.10
58809;DHT22;44579;51.672;7.834;2024-03-08T09:11:40;4.60;88.00
58809;DHT22;44579;51.672;7.834;2024-03-08T09:14:12;4.70;88.10
58809;DHT22;44579;51.672;7.834;2024-03-08T09:16:40;4.70;87.90
58809;DHT22;44579;51.672;7.834;2024-03-08T09:19:07;4.80;88.00
58809;DHT22;44579;51.672;7.834;2024-03-08T09:21:37;4.80;88.00
58809;DHT22;44579;51.672;7.834;2024-03-08T09:24:04;4.90;87.90
58809;DHT22;44579;51.672;7.834;2024-03-08T09:26:31;4.90;87.60
58809;DHT22;44579;51.672;7.834;2024-03-08T09:29:00;5.00;87.50
58809;DHT22;44579;51.672;7.834;2024-03-08T09:31:27;5.00;87.30
58809;DHT22;44579;51.672;7.834;2024-03-08T09:33:54;5.10;87.10
58809;DHT22;44579;51.672;7.834;2024-03-08T09:36:21;5.10;87.00
58809;DHT22;44579;51.672;7.834;2024-03-08T09:38:47;5.20;86.90
58809;DHT22;44579;51.672;7.834;2024-03-08T09:41:16;5.30;86.70
58809;DHT22;44579;51.672;7.834;2024-03-08T09:43:44;5.30;86.70
58809;DHT22;44579;51.672;7.834;2024-03-08T09:46:12;5.40;86.50
58809;DHT22;44579;51.672;7.834;2024-03-08T09:48:40;5.40;86.50
58809;DHT22;44579;51.672;7.834;2024-03-08T09:51:08;5.50;86.50
58809;DHT22;44579;51.672;7.834;2024-03-08T09:53:35;5.50;86.30
58809;DHT22;44579;51.672;7.834;2024-03-08T09:56:02;5.60;86.20
58809;DHT22;44579;51.672;7.834;2024-03-08T09:58:30;5.70;86.00
58809;DHT22;44579;51.672;7.834;2024-03-08T10:01:09;5.70;85.80
58809;DHT22;44579;51.672;7.834;2024-03-08T10:03:36;5.70;85.70
58809;DHT22;44579;51.672;7.834;2024-03-08T10:06:03;5.80;85.40
58809;DHT22;44579;51.672;7.834;2024-03-08T10:08:30;5.80;85.00
58809;DHT22;44579;51.672;7.834;2024-03-08T10:10:57;5.80;85.70
58809;DHT22;44579;51.672;7.834;2024-03-08T10:13:27;5.90;84.80
58809;DHT22;44579;51.672;7.834;2024-03-08T10:15:54;5.90;84.60
58809;DHT22;44579;51.672;7.834;2024-03-08T10:18:21;6.00;84.50
58809;DHT22;44579;51.672;7.834;2024-03-08T10:21:08;6.10;84.00
58809;DHT22;44579;51.672;7.834;2024-03-08T10:23:37;6.10;83.30
58809;DHT22;44579;51.672;7.834;2024-03-08T10:28:37;6.10;83.10
58809;DHT22;44579;51.672;7.834;2024-03-08T10:31:04;6.30;82.70
58809;DHT22;44579;51.672;7.834;2024-03-08T10:33:32;6.30;82.10
58809;DHT22;44579;51.672;7.834;2024-03-08T10:36:00;6.30;82.30
58809;DHT22;44579;51.672;7.834;2024-03-08T10:38:27;6.30;82.20
58809;DHT22;44579;51.672;7.834;2024-03-08T10:40:58;6.40;81.70
58809;DHT22;44579;51.672;7.834;2024-03-08T10:43:25;6.40;81.30
58809;DHT22;44579;51.672;7.834;2024-03-08T10:46:42;6.50;81.60
58809;DHT22;44579;51.672;7.834;2024-03-08T10:48:47;6.50;81.60
58809;DHT22;44579;51.672;7.834;2024-03-08T10:51:15;6.60;81.70
58809;DHT22;44579;51.672;7.834;2024-03-08T10:53:43;6.70;81.80
58809;DHT22;44579;51.672;7.834;2024-03-08T10:56:11;6.90;82.00
58809;DHT22;44579;51.672;7.834;2024-03-08T10:58:41;7.00;82.00
58809;DHT22;44579;51.672;7.834;2024-03-08T11:01:10;7.00;81.80
58809;DHT22;44579;51.672;7.834;2024-03-08T11:06:21;7.10;80.70
58809;DHT22;44579;51.672;7.834;2024-03-08T11:08:50;7.10;80.10
58809;DHT22;44579;51.672;7.834;2024-03-08T11:11:27;7.20;79.60
58809;DHT22;44579;51.672;7.834;2024-03-08T11:14:01;7.20;79.10
58809;DHT22;44579;51.672;7.834;2024-03-08T11:18:59;7.30;78.20
58809;DHT22;44579;51.672;7.834;2024-03-08T11:21:33;7.30;78.00
58809;DHT22;44579;51.672;7.834;2024-03-08T11:24:06;7.30;77.20
58809;DHT22;44579;51.672;7.834;2024-03-08T11:26:34;7.40;77.10
58809;DHT22;44579;51.672;7.834;2024-03-08T11:31:51;7.50;77.40
58809;DHT22;44579;51.672;7.834;2024-03-08T11:34:19;7.50;77.20
58809;DHT22;44579;51.672;7.834;2024-03-08T11:36:47;7.60;76.70
58809;DHT22;44579;51.672;7.834;2024-03-08T11:39:14;7.60;76.80
58809;DHT22;44579;51.672;7.834;2024-03-08T11:41:44;7.60;76.40
58809;DHT22;44579;51.672;7.834;2024-03-08T11:44:13;7.70;76.10
58809;DHT22;44579;51.672;7.834;2024-03-08T11:46:42;7.70;76.10
58809;DHT22;44579;51.672;7.834;2024-03-08T11:49:13;7.80;75.70
58809;DHT22;44579;51.672;7.834;2024-03-08T11:51:41;7.80;75.30
58809;DHT22;44579;51.672;7.834;2024-03-08T11:54:11;7.90;75.50
58809;DHT22;44579;51.672;7.834;2024-03-08T11:56:39;7.90;75.40
58809;DHT22;44579;51.672;7.834;2024-03-08T11:59:11;7.90;75.50
58809;DHT22;44579;51.672;7.834;2024-03-08T12:01:39;7.90;75.40
58809;DHT22;44579;51.672;7.834;2024-03-08T12:04:06;8.00;75.40
58809;DHT22;44579;51.672;7.834;2024-03-08T12:06:36;8.00;75.10
58809;DHT22;44579;51.672;7.834;2024-03-08T12:09:13;8.00;75.00
58809;DHT22;44579;51.672;7.834;2024-03-08T12:11:41;8.10;74.30
58809;DHT22;44579;51.672;7.834;2024-03-08T12:14:10;8.00;74.30
58809;DHT22;44579;51.672;7.834;2024-03-08T12:16:37;8.00;74.70
58809;DHT22;44579;51.672;7.834;2024-03-08T12:19:04;8.00;74.50
58809;DHT22;44579;51.672;7.834;2024-03-08T12:21:31;8.10;74.80
58809;DHT22;44579;51.672;7.834;2024-03-08T12:24:06;8.10;74.50
58809;DHT22;44579;51.672;7.834;2024-03-08T12:26:36;8.10;73.70
58809;DHT22;44579;51.672;7.834;2024-03-08T12:31:47;8.20;73.00
58809;DHT22;44579;51.672;7.834;2024-03-08T12:34:14;8.20;72.90
58809;DHT22;44579;51.672;7.834;2024-03-08T12:36:45;8.30;72.60
58809;DHT22;44579;51.672;7.834;2024-03-08T12:39:17;8.30;72.40
58809;DHT22;44579;51.672;7.834;2024-03-08T12:41:48;8.20;72.30
58809;DHT22;44579;51.672;7.834;2024-03-08T12:44:18;8.30;72.50
58809;DHT22;44579;51.672;7.834;2024-03-08T12:46:45;8.30;72.30
58809;DHT22;44579;51.672;7.834;2024-03-08T12:49:12;8.40;72.70
58809;DHT22;44579;51.672;7.834;2024-03-08T12:51:39;8.50;72.80
58809;DHT22;44579;51.672;7.834;2024-03-08T12:54:06;8.50;72.60
58809;DHT22;44579;51.672;7.834;2024-03-08T12:56:36;8.50;72.60
58809;DHT22;44579;51.672;7.834;2024-03-08T12:59:04;8.50;72.50
58809;DHT22;44579;51.672;7.834;2024-03-08T13:01:32;8.60;72.20
58809;DHT22;44579;51.672;7.834;2024-03-08T13:03:59;8.50;72.20
58809;DHT22;44579;51.672;7.834;2024-03-08T13:06:29;8.60;71.90
58809;DHT22;44579;51.672;7.834;2024-03-08T13:08:57;8.50;71.60
58809;DHT22;44579;51.672;7.834;2024-03-08T13:11:24;8.60;71.10
58809;DHT22;44579;51.672;7.834;2024-03-08T13:13:51;8.60;71.30
58809;DHT22;44579;51.672;7.834;2024-03-08T13:16:22;8.60;72.30
58809;DHT22;44579;51.672;7.834;2024-03-08T13:18:48;8.60;71.40
58809;DHT22;44579;51.672;7.834;2024-03-08T13:21:20;8.60;71.00
58809;DHT22;44579;51.672;7.834;2024-03-08T13:23:50;8.60;70.30
58809;DHT22;44579;51.672;7.834;2024-03-08T13:26:20;8.60;70.00
58809;DHT22;44579;51.672;7.834;2024-03-08T13:28:49;8.60;69.60
58809;DHT22;44579;51.672;7.834;2024-03-08T13:31:23;8.70;69.50
58809;DHT22;44579;51.672;7.834;2024-03-08T13:33:50;8.70;69.70
58809;DHT22;44579;51.672;7.834;2024-03-08T13:36:18;8.70;70.00
58809;DHT22;44579;51.672;7.834;2024-03-08T13:38:47;8.70;70.30
58809;DHT22;44579;51.672;7.834;2024-03-08T13:41:15;8.80;70.10
58809;DHT22;44579;51.672;7.834;2024-03-08T13:43:45;8.80;69.70
58809;DHT22;44579;51.672;7.834;2024-03-08T13:46:12;8.80;69.40
58809;DHT22;44579;51.672;7.834;2024-03-08T13:48:39;8.80;69.40
58809;DHT22;44579;51.672;7.834;2024-03-08T13:51:08;8.80;68.90
58809;DHT22;44579;51.672;7.834;2024-03-08T13:53:39;8.80;68.70
58809;DHT22;44579;51.672;7.834;2024-03-08T13:56:07;8.80;68.70
58809;DHT22;44579;51.672;7.834;2024-03-08T13:58:40;8.80;68.70
58809;DHT22;44579;51.672;7.834;2024-03-08T14:01:07;8.80;68.60
58809;DHT22;44579;51.672;7.834;2024-03-08T14:03:38;8.90;68.40
58809;DHT22;44579;51.672;7.834;2024-03-08T14:06:09;8.90;68.60
58809;DHT22;44579;51.672;7.834;2024-03-08T14:08:36;8.90;68.50
58809;DHT22;44579;51.672;7.834;2024-03-08T14:11:04;8.90;68.70
58809;DHT22;44579;51.672;7.834;2024-03-08T14:13:42;8.90;68.60
58809;DHT22;44579;51.672;7.834;2024-03-08T14:16:13;8.90;68.10
58809;DHT22;44579;51.672;7.834;2024-03-08T14:18:40;9.00;67.90
58809;DHT22;44579;51.672;7.834;2024-03-08T14:21:07;9.00;68.00
58809;DHT22;44579;51.672;7.834;2024-03-08T14:23:35;9.00;68.00
58809;DHT22;44579;51.672;7.834;2024-03-08T14:26:03;9.00;67.90
58809;DHT22;44579;51.672;7.834;2024-03-08T14:28:31;9.00;68.10
58809;DHT22;44579;51.672;7.834;2024-03-08T14:31:02;9.10;68.10
58809;DHT22;44579;51.672;7.834;2024-03-08T14:33:33;9.00;67.90
58809;DHT22;44579;51.672;7.834;2024-03-08T14:36:00;9.10;67.80
58809;DHT22;44579;51.672;7.834;2024-03-08T14:38:28;9.10;67.90
58809;DHT22;44579;51.672;7.834;2024-03-08T14:40:54;9.10;68.10
58809;DHT22;44579;51.672;7.834;2024-03-08T14:43:22;9.10;68.20
58809;DHT22;44579;51.672;7.834;2024-03-08T14:45:49;9.10;68.20
58809;DHT22;44579;51.672;7.834;2024-03-08T14:48:17;9.10;68.20
58809;DHT22;44579;51.672;7.834;2024-03-08T14:50:44;9.10;68.00
58809;DHT22;44579;51.672;7.834;2024-03-08T14:53:14;9.10;67.50
58809;DHT22;44579;51.672;7.834;2024-03-08T14:55:43;9.10;67.50
58809;DHT22;44579;51.672;7.834;2024-03-08T14:58:13;9.10;67.70
58809;DHT22;44579;51.672;7.834;2024-03-08T15:00:41;9.10;67.70
58809;DHT22;44579;51.672;7.834;2024-03-08T15:03:08;9.10;67.80
58809;DHT22;44579;51.672;7.834;2024-03-08T15:05:39;9.10;67.60
58809;DHT22;44579;51.672;7.834;2024-03-08T15:08:14;9.10;67.70
58809;DHT22;44579;51.672;7.834;2024-03-08T15:10:47;9.10;67.30
58809;DHT22;44579;51.672;7.834;2024-03-08T15:13:20;9.00;67.50
58809;DHT22;44579;51.672;7.834;2024-03-08T15:15:50;9.10;67.40
58809;DHT22;44579;51.672;7.834;2024-03-08T15:18:24;9.10;67.50
58809;DHT22;44579;51.672;7.834;2024-03-08T15:21:01;9.10;67.60
58809;DHT22;44579;51.672;7.834;2024-03-08T15:23:28;9.10;67.50
58809;DHT22;44579;51.672;7.834;2024-03-08T15:25:55;9.10;67.20
58809;DHT22;44579;51.672;7.834;2024-03-08T15:28:22;9.10;67.10
58809;DHT22;44579;51.672;7.834;2024-03-08T15:30:57;9.10;67.30
58809;DHT22;44579;51.672;7.834;2024-03-08T15:33:33;9.10;67.20
58809;DHT22;44579;51.672;7.834;2024-03-08T15:36:00;9.10;66.90
58809;DHT22;44579;51.672;7.834;2024-03-08T15:38:35;9.10;67.10
58809;DHT22;44579;51.672;7.834;2024-03-08T15:41:04;9.10;67.00
58809;DHT22;44579;51.672;7.834;2024-03-08T15:43:36;9.10;67.00
58809;DHT22;44579;51.672;7.834;2024-03-08T15:46:04;9.10;67.10
58809;DHT22;44579;51.672;7.834;2024-03-08T15:48:31;9.10;67.30
58809;DHT22;44579;51.672;7.834;2024-03-08T15:50:59;9.10;67.00
58809;DHT22;44579;51.672;7.834;2024-03-08T15:53:29;9.10;66.80
58809;DHT22;44579;51.672;7.834;2024-03-08T15:56:02;9.10;66.70
58809;DHT22;44579;51.672;7.834;2024-03-08T15:58:30;9.10;66.70
58809;DHT22;44579;51.672;7.834;2024-03-08T16:00:57;9.10;66.60
58809;DHT22;44579;51.672;7.834;2024-03-08T16:03:25;9.10;66.40
58809;DHT22;44579;51.672;7.834;2024-03-08T16:05:55;9.00;66.20